Time;durP1;ratioP1;P1;durP2;ratioP2;P2;SDS_P1;SDS_P2;PMS_P1;PMS_P2;Temp;Humidity;BMP_temperature;BMP_pressure;BME280_temperature;BME280_humidity;BME280_pressure;Samples;Min_cycle;Max_cycle;Signal;HPM_P1;HPM_P2
2022/07/15 00:01:54;;;;;;;;;;;;;;;16.01;70.37;95299.16;5134244;28;1066;-49
2022/07/15 00:04:20;;;;;;;;;;;;;;;15.90;71.02;95294.28;5133853;28;1910;-49
2022/07/15 00:06:46;;;;;;;;;;;;;;;15.87;70.80;95303.56;5134248;28;1118;-49
2022/07/15 00:09:12;;;;;;;;;;;;;;;15.94;70.33;95299.09;5133977;28;998;-49
2022/07/15 00:11:38;;;;;;;;;;;;;;;15.98;70.24;95297.69;5134145;28;1013;-49
2022/07/15 00:14:04;;;;;;;;;;;;;;;16.01;70.08;95288.34;5134294;28;1024;-49
2022/07/15 00:16:30;;;;;;;;;;;;;;;16.14;69.59;95285.81;5134069;28;1017;-49
2022/07/15 00:18:57;;;;;;;;;;;;;;;15.87;70.37;95289.25;5134064;28;1029;-49
2022/07/15 00:21:23;;;;;;;;;;;;;;;15.59;71.70;95292.63;5133979;28;969;-49
2022/07/15 00:23:49;;;;;;;;;;;;;;;15.58;72.01;95290.97;5133704;28;1901;-49
2022/07/15 00:26:15;;;;;;;;;;;;;;;15.61;72.00;95294.13;5133842;28;1013;-49
2022/07/15 00:28:41;;;;;;;;;;;;;;;15.52;72.42;95297.94;5134017;28;984;-49
2022/07/15 00:31:07;;;;;;;;;;;;;;;15.58;71.77;95302.59;5133805;28;1008;-49
2022/07/15 00:33:33;;;;;;;;;;;;;;;15.77;70.58;95306.56;5134083;28;1011;-49
2022/07/15 00:35:59;;;;;;;;;;;;;;;15.81;70.88;95309.72;5133745;28;1039;-49
2022/07/15 00:38:25;;;;;;;;;;;;;;;15.75;71.51;95302.41;5133916;28;1068;-49
2022/07/15 00:40:51;;;;;;;;;;;;;;;15.75;71.20;95300.53;5133687;27;1052;-49
2022/07/15 00:43:18;;;;;;;;;;;;;;;15.76;71.30;95304.06;5128771;27;1909;-49
2022/07/15 00:45:44;;;;;;;;;;;;;;;15.87;70.61;95300.03;5117256;28;1048;-49
2022/07/15 00:48:11;;;;;;;;;;;;;;;15.81;70.85;95302.47;5119883;27;1675;-49
2022/07/15 00:50:37;;;;;;;;;;;;;;;15.69;71.40;95300.41;5137718;27;1015;-49
2022/07/15 00:53:05;;;;;;;;;;;;;;;15.50;72.01;95293.75;5137660;27;1004;-49
2022/07/15 00:55:32;;;;;;;;;;;;;;;15.59;71.80;95290.78;5137382;27;1040;-49
2022/07/15 00:58:00;;;;;;;;;;;;;;;15.71;71.44;95296.53;5137805;27;965;-49
2022/07/15 01:00:27;;;;;;;;;;;;;;;15.66;71.52;95285.47;5137552;27;1103;-49
2022/07/15 01:02:54;;;;;;;;;;;;;;;15.71;71.24;95287.59;5137418;27;1905;-49
2022/07/15 01:05:20;;;;;;;;;;;;;;;15.62;71.85;95279.63;5137043;27;980;-49
2022/07/15 01:07:49;;;;;;;;;;;;;;;15.70;71.39;95291.31;5137363;27;1087;-49
2022/07/15 01:10:16;;;;;;;;;;;;;;;15.40;72.82;95288.66;5136983;27;1040;-49
2022/07/15 01:12:42;;;;;;;;;;;;;;;15.13;73.42;95291.00;5137524;27;1020;-49
2022/07/15 01:15:09;;;;;;;;;;;;;;;15.15;73.44;95291.66;5136960;27;1029;-49
2022/07/15 01:17:35;;;;;;;;;;;;;;;15.29;73.33;95292.69;5137313;27;967;-49
2022/07/15 01:20:01;;;;;;;;;;;;;;;15.34;72.88;95289.41;5136962;27;996;-49
2022/07/15 01:22:27;;;;;;;;;;;;;;;15.44;72.35;95284.56;5137082;27;1991;-49
2022/07/15 01:24:53;;;;;;;;;;;;;;;15.47;72.18;95289.59;5136816;27;1033;-49
2022/07/15 01:27:20;;;;;;;;;;;;;;;15.48;72.02;95295.81;5136928;27;1968;-49
2022/07/15 01:29:46;;;;;;;;;;;;;;;15.20;73.04;95299.19;5136945;27;982;-49
2022/07/15 01:32:12;;;;;;;;;;;;;;;15.03;73.41;95293.97;5136998;27;1032;-49
2022/07/15 01:34:38;;;;;;;;;;;;;;;14.87;73.70;95293.31;5136541;27;1075;-49
2022/07/15 01:37:04;;;;;;;;;;;;;;;14.94;73.87;95291.56;5136624;27;1147;-49
2022/07/15 01:39:30;;;;;;;;;;;;;;;15.03;73.84;95296.66;5136714;27;1028;-49
2022/07/15 01:41:56;;;;;;;;;;;;;;;15.08;73.51;95300.66;5136798;27;1069;-48
2022/07/15 01:44:22;;;;;;;;;;;;;;;15.13;72.93;95298.25;5136654;27;1918;-48
2022/07/15 01:46:48;;;;;;;;;;;;;;;15.20;73.03;95293.81;5136452;27;996;-48
2022/07/15 01:49:26;;;;;;;;;;;;;;;15.18;73.20;95295.84;5136394;27;1119;-49
2022/07/15 01:51:53;;;;;;;;;;;;;;;15.10;73.26;95294.09;5135985;27;968;-50
2022/07/15 01:54:20;;;;;;;;;;;;;;;14.95;73.53;95288.69;5136363;27;1020;-49
2022/07/15 01:56:46;;;;;;;;;;;;;;;14.95;73.53;95296.75;5136455;27;1056;-49
2022/07/15 01:59:12;;;;;;;;;;;;;;;14.94;73.73;95291.56;5136141;27;2035;-50
2022/07/15 02:01:38;;;;;;;;;;;;;;;14.72;74.23;95295.97;5136351;27;1055;-50
2022/07/15 02:04:04;;;;;;;;;;;;;;;14.55;75.11;95284.50;5135807;27;1906;-50
2022/07/15 02:06:30;;;;;;;;;;;;;;;14.52;75.57;95292.97;5135871;27;946;-49
2022/07/15 02:08:56;;;;;;;;;;;;;;;14.60;75.35;95292.91;5136397;27;969;-49
2022/07/15 02:11:22;;;;;;;;;;;;;;;14.62;74.86;95302.47;5135961;27;991;-50
2022/07/15 02:13:48;;;;;;;;;;;;;;;14.73;74.50;95297.66;5136138;27;982;-50
2022/07/15 02:16:14;;;;;;;;;;;;;;;14.75;74.33;95303.69;5135818;27;971;-49
2022/07/15 02:18:40;;;;;;;;;;;;;;;14.64;74.53;95299.59;5135927;27;1025;-50
2022/07/15 02:21:06;;;;;;;;;;;;;;;14.38;75.66;95300.81;5136063;27;1020;-50
2022/07/15 02:23:32;;;;;;;;;;;;;;;14.40;76.01;95296.09;5135665;27;1992;-50
2022/07/15 02:25:58;;;;;;;;;;;;;;;14.68;74.55;95297.38;5135805;27;1039;-50
2022/07/15 02:28:25;;;;;;;;;;;;;;;14.92;73.44;95289.03;5135651;27;1068;-50
2022/07/15 02:30:51;;;;;;;;;;;;;;;15.00;73.49;95288.94;5135622;27;1015;-49
2022/07/15 02:33:17;;;;;;;;;;;;;;;14.90;73.98;95295.66;5135574;27;1129;-50
2022/07/15 02:35:43;;;;;;;;;;;;;;;14.78;74.28;95292.56;5135290;27;1008;-50
2022/07/15 02:38:09;;;;;;;;;;;;;;;14.62;74.76;95294.38;5135400;27;973;-50
2022/07/15 02:40:35;;;;;;;;;;;;;;;14.40;75.32;95297.94;5135655;27;1045;-49
2022/07/15 02:43:02;;;;;;;;;;;;;;;14.45;75.24;95300.91;5128797;27;1987;-49
2022/07/15 02:45:29;;;;;;;;;;;;;;;14.57;75.00;95288.72;5114786;28;1079;-49
2022/07/15 02:47:55;;;;;;;;;;;;;;;14.53;75.22;95298.16;5115215;28;1075;-51
2022/07/15 02:50:22;;;;;;;;;;;;;;;14.33;76.08;95300.50;5135239;27;1044;-50
2022/07/15 02:52:48;;;;;;;;;;;;;;;14.36;75.77;95297.47;5134945;27;1021;-49
2022/07/15 02:55:15;;;;;;;;;;;;;;;14.59;74.58;95302.84;5135269;27;1032;-49
2022/07/15 02:57:41;;;;;;;;;;;;;;;14.73;74.20;95300.34;5135164;27;962;-49
2022/07/15 03:00:11;;;;;;;;;;;;;;;14.60;74.77;95292.91;5135144;27;957;-49
2022/07/15 03:02:38;;;;;;;;;;;;;;;14.31;75.66;95290.94;5134974;27;1988;-49
2022/07/15 03:05:05;;;;;;;;;;;;;;;14.03;76.97;95291.50;5133871;27;1083;-49
2022/07/15 03:07:31;;;;;;;;;;;;;;;14.12;76.72;95294.97;5134812;27;1008;-49
2022/07/15 03:09:57;;;;;;;;;;;;;;;14.20;76.69;95295.72;5135262;27;952;-50
2022/07/15 03:12:23;;;;;;;;;;;;;;;14.25;76.90;95287.97;5134631;27;1945;-50
2022/07/15 03:14:49;;;;;;;;;;;;;;;14.14;76.79;95293.75;5134955;27;1053;-50
2022/07/15 03:17:15;;;;;;;;;;;;;;;14.12;77.06;95295.78;5134589;27;1024;-50
2022/07/15 03:19:41;;;;;;;;;;;;;;;14.03;77.24;95294.19;5134742;27;1032;-50
2022/07/15 03:22:07;;;;;;;;;;;;;;;14.10;77.50;95297.00;5134778;27;1052;-49
2022/07/15 03:24:33;;;;;;;;;;;;;;;14.27;77.00;95297.72;5134854;27;1986;-49
2022/07/15 03:26:59;;;;;;;;;;;;;;;14.35;76.72;95294.94;5134734;27;1083;-49
2022/07/15 03:29:26;;;;;;;;;;;;;;;14.45;76.31;95295.53;5134599;27;997;-49
2022/07/15 03:31:52;;;;;;;;;;;;;;;14.49;76.17;95304.06;5134362;27;1036;-49
2022/07/15 03:34:18;;;;;;;;;;;;;;;14.55;76.10;95306.88;5134277;27;974;-49
2022/07/15 03:36:44;;;;;;;;;;;;;;;14.44;76.25;95300.06;5134424;27;949;-49
2022/07/15 03:39:10;;;;;;;;;;;;;;;14.28;77.26;95299.38;5134670;27;1053;-49
2022/07/15 03:41:37;;;;;;;;;;;;;;;14.05;77.84;95298.34;5134619;27;983;-49
2022/07/15 03:44:03;;;;;;;;;;;;;;;14.33;77.31;95297.81;5134221;27;1918;-49
2022/07/15 03:46:30;;;;;;;;;;;;;;;14.59;76.71;95300.16;5134556;27;1010;-49
2022/07/15 03:48:56;;;;;;;;;;;;;;;14.55;76.72;95296.13;5134126;27;1223;-49
2022/07/15 03:51:24;;;;;;;;;;;;;;;14.58;77.11;95297.63;5134590;27;2149;-49
2022/07/15 03:53:50;;;;;;;;;;;;;;;14.61;76.95;95299.97;5134162;28;1032;-49
2022/07/15 03:56:17;;;;;;;;;;;;;;;14.72;77.13;95291.47;5134508;27;1041;-49
2022/07/15 03:58:44;;;;;;;;;;;;;;;14.98;76.40;95291.00;5134279;28;1040;-49
2022/07/15 04:01:10;;;;;;;;;;;;;;;15.27;75.80;95297.44;5134228;28;1032;-49
2022/07/15 04:03:36;;;;;;;;;;;;;;;15.46;75.36;95297.84;5134067;28;1917;-49
2022/07/15 04:06:02;;;;;;;;;;;;;;;15.47;75.06;95305.75;5134240;28;972;-49
2022/07/15 04:08:28;;;;;;;;;;;;;;;15.45;75.37;95302.41;5134080;28;1076;-49
2022/07/15 04:10:55;;;;;;;;;;;;;;;15.49;75.15;95292.94;5134365;28;1019;-50
2022/07/15 04:13:22;;;;;;;;;;;;;;;15.69;75.40;95295.03;5134084;28;958;-50
2022/07/15 04:15:48;;;;;;;;;;;;;;;15.82;74.70;95297.91;5135671;27;1087;-50
2022/07/15 04:18:14;;;;;;;;;;;;;;;16.11;73.95;95294.28;5138071;27;1147;-50
2022/07/15 04:20:40;;;;;;;;;;;;;;;16.34;73.45;95293.28;5138492;27;1029;-49
2022/07/15 04:23:06;;;;;;;;;;;;;;;16.57;73.30;95301.97;5138080;27;1905;-50
2022/07/15 04:25:32;;;;;;;;;;;;;;;16.71;72.51;95297.53;5138444;27;1068;-50
2022/07/15 04:27:58;;;;;;;;;;;;;;;16.75;71.87;95296.13;5138135;27;953;-49
2022/07/15 04:30:24;;;;;;;;;;;;;;;16.85;72.15;95298.50;5138168;27;981;-49
2022/07/15 04:32:50;;;;;;;;;;;;;;;17.02;71.43;95309.84;5137864;27;1007;-50
2022/07/15 04:35:16;;;;;;;;;;;;;;;17.37;70.51;95302.56;5137891;27;989;-50
2022/07/15 04:37:42;;;;;;;;;;;;;;;17.67;69.22;95309.56;5137738;27;1012;-50
2022/07/15 04:40:09;;;;;;;;;;;;;;;17.71;69.12;95300.03;5137998;27;972;-49
2022/07/15 04:42:36;;;;;;;;;;;;;;;17.80;68.61;95304.22;5135046;27;2000;-49
2022/07/15 04:45:02;;;;;;;;;;;;;;;17.92;68.49;95304.50;5117199;28;990;-50
2022/07/15 04:47:28;;;;;;;;;;;;;;;18.08;67.69;95306.84;5117200;28;1025;-50
2022/07/15 04:52:45;;;;;;;;;;;;;;;18.27;66.69;95304.41;5137758;27;1013;-49
2022/07/15 04:55:12;;;;;;;;;;;;;;;18.28;66.92;95304.16;5137685;27;988;-50
2022/07/15 04:57:38;;;;;;;;;;;;;;;18.40;67.53;95307.13;5137680;27;988;-49
2022/07/15 05:00:05;;;;;;;;;;;;;;;18.51;67.12;95305.66;5137240;27;976;-50
2022/07/15 05:02:31;;;;;;;;;;;;;;;18.50;67.16;95312.13;5137741;27;1004;-49
2022/07/15 05:04:57;;;;;;;;;;;;;;;18.49;67.48;95311.28;5137211;27;1973;-50
2022/07/15 05:07:23;;;;;;;;;;;;;;;18.63;67.17;95312.16;5137487;27;1043;-49
2022/07/15 05:09:49;;;;;;;;;;;;;;;18.81;66.49;95308.84;5119057;27;1016;-49
2022/07/15 05:12:15;;;;;;;;;;;;;;;18.93;64.68;95317.16;5137294;27;1043;-50
2022/07/15 05:14:41;;;;;;;;;;;;;;;18.99;66.68;95310.94;5118866;27;987;-50
2022/07/15 05:17:08;;;;;;;;;;;;;;;19.20;64.38;95307.16;5137482;27;987;-50
2022/07/15 05:19:34;;;;;;;;;;;;;;;19.23;64.61;95312.13;5137243;27;1045;-50
2022/07/15 05:22:00;;;;;;;;;;;;;;;19.42;64.91;95312.31;5137031;27;1032;-50
2022/07/15 05:24:27;;;;;;;;;;;;;;;19.92;63.24;95320.75;5136949;27;1992;-50
2022/07/15 05:26:53;;;;;;;;;;;;;;;20.65;59.89;95314.09;5136333;27;969;-50
2022/07/15 05:29:21;;;;;;;;;;;;;;;21.47;56.54;95318.63;5136619;27;1008;-51
2022/07/15 05:31:48;;;;;;;;;;;;;;;21.56;56.17;95320.00;5137263;27;1035;-51
2022/07/15 05:34:15;;;;;;;;;;;;;;;21.67;56.29;95321.16;5136523;27;1067;-50
2022/07/15 05:36:41;;;;;;;;;;;;;;;21.51;56.90;95323.38;5137009;27;1065;-51
2022/07/15 05:39:07;;;;;;;;;;;;;;;21.51;56.38;95322.56;5136779;27;1019;-50
2022/07/15 05:41:33;;;;;;;;;;;;;;;21.16;56.96;95323.91;5136752;27;1071;-50
2022/07/15 05:44:00;;;;;;;;;;;;;;;20.74;57.18;95310.03;5136282;27;1898;-50
2022/07/15 05:46:26;;;;;;;;;;;;;;;20.58;58.72;95308.69;5136919;27;957;-50
2022/07/15 05:48:52;;;;;;;;;;;;;;;20.50;59.96;95305.38;5136429;27;1155;-50
2022/07/15 05:51:18;;;;;;;;;;;;;;;20.46;59.71;95308.53;5136651;27;1047;-50
2022/07/15 05:53:44;;;;;;;;;;;;;;;20.55;59.79;95308.28;5136428;27;1011;-50
2022/07/15 05:56:10;;;;;;;;;;;;;;;20.64;60.68;95310.53;5136524;27;965;-51
2022/07/15 05:58:36;;;;;;;;;;;;;;;20.71;59.98;95310.47;5136288;27;1028;-50
2022/07/15 06:01:02;;;;;;;;;;;;;;;20.85;59.61;95314.78;5136540;27;1086;-50
2022/07/15 06:03:28;;;;;;;;;;;;;;;21.05;59.30;95320.03;5136286;27;1986;-50
2022/07/15 06:05:54;;;;;;;;;;;;;;;21.18;58.71;95316.34;5136105;27;1051;-50
2022/07/15 06:08:20;;;;;;;;;;;;;;;21.21;58.90;95313.19;5136233;27;1000;-50
2022/07/15 06:10:46;;;;;;;;;;;;;;;21.34;58.47;95316.84;5135984;27;1095;-50
2022/07/15 06:13:12;;;;;;;;;;;;;;;21.41;57.96;95312.16;5136022;27;1009;-50
2022/07/15 06:15:38;;;;;;;;;;;;;;;21.38;58.79;95315.31;5136171;27;965;-50
2022/07/15 06:18:04;;;;;;;;;;;;;;;21.40;58.95;95307.81;5136020;27;1111;-50
2022/07/15 06:20:30;;;;;;;;;;;;;;;21.50;58.51;95310.84;5136033;27;1045;-50
2022/07/15 06:22:57;;;;;;;;;;;;;;;21.71;58.65;95306.03;5135985;27;1905;-50
2022/07/15 06:25:23;;;;;;;;;;;;;;;21.90;57.90;95302.22;5135655;27;1007;-50
2022/07/15 06:27:49;;;;;;;;;;;;;;;22.00;58.00;95299.78;5117564;27;1012;-51
2022/07/15 06:30:15;;;;;;;;;;;;;;;22.20;57.73;95296.81;5135428;27;1254;-50
2022/07/15 06:32:41;;;;;;;;;;;;;;;22.37;58.01;95299.75;5135944;27;991;-50
2022/07/15 06:35:07;;;;;;;;;;;;;;;22.40;56.76;95293.00;5135262;27;1035;-50
2022/07/15 06:37:33;;;;;;;;;;;;;;;22.65;57.38;95294.72;5135611;27;941;-51
2022/07/15 06:39:59;;;;;;;;;;;;;;;22.73;56.72;95292.50;5135299;27;1111;-51
2022/07/15 06:42:25;;;;;;;;;;;;;;;22.73;54.84;95295.25;5134079;27;1881;-50
2022/07/15 06:44:52;;;;;;;;;;;;;;;22.73;56.07;95295.25;5114659;28;1910;-51
2022/07/15 06:47:18;;;;;;;;;;;;;;;22.87;55.92;95281.41;5114775;28;1219;-51
2022/07/15 06:49:44;;;;;;;;;;;;;;;23.14;56.99;95288.06;5109029;28;1123;-51
2022/07/15 06:52:10;;;;;;;;;;;;;;;23.17;55.29;95286.78;5114848;28;1047;-51
2022/07/15 06:54:36;;;;;;;;;;;;;;;23.23;55.25;95294.00;5114563;28;1092;-51
2022/07/15 06:57:03;;;;;;;;;;;;;;;23.37;53.88;95287.28;5115134;28;1003;-51
2022/07/15 06:59:29;;;;;;;;;;;;;;;23.49;53.41;95289.97;5114781;28;1047;-51
2022/07/15 07:01:56;;;;;;;;;;;;;;;23.48;54.44;95285.56;5114607;28;1060;-51
2022/07/15 07:04:22;;;;;;;;;;;;;;;23.70;53.84;95295.88;5114405;28;1910;-51
2022/07/15 07:06:48;;;;;;;;;;;;;;;23.83;54.65;95282.00;5114675;28;979;-51
2022/07/15 07:09:14;;;;;;;;;;;;;;;23.80;52.10;95287.94;5113661;28;972;-51
2022/07/15 07:11:40;;;;;;;;;;;;;;;23.92;53.71;95288.75;5114469;27;1023;-51
2022/07/15 07:14:07;;;;;;;;;;;;;;;24.07;51.96;95279.19;5114414;28;1068;-51
2022/07/15 07:16:33;;;;;;;;;;;;;;;24.09;51.47;95287.97;5114748;28;945;-52
2022/07/15 07:18:59;;;;;;;;;;;;;;;24.16;50.88;95280.47;5114450;28;1043;-51
2022/07/15 07:21:25;;;;;;;;;;;;;;;24.21;51.62;95286.03;5114419;28;1010;-51
2022/07/15 07:23:52;;;;;;;;;;;;;;;24.30;51.38;95281.84;5114355;28;1998;-51
2022/07/15 07:26:18;;;;;;;;;;;;;;;24.47;51.13;95278.31;5114019;28;1083;-51
2022/07/15 07:28:45;;;;;;;;;;;;;;;24.50;49.26;95281.38;5114671;28;1032;-51
2022/07/15 07:31:12;;;;;;;;;;;;;;;24.69;49.39;95276.56;5114090;28;1012;-51
2022/07/15 07:33:39;;;;;;;;;;;;;;;24.82;47.93;95280.91;5114897;28;1680;-51
2022/07/15 07:36:06;;;;;;;;;;;;;;;24.90;48.33;95274.19;5114188;28;1878;-51
2022/07/15 07:38:32;;;;;;;;;;;;;;;25.04;48.55;95277.41;5113005;28;984;-51
2022/07/15 07:40:58;;;;;;;;;;;;;;;25.16;47.78;95280.91;5113017;28;1024;-51
2022/07/15 07:43:24;;;;;;;;;;;;;;;25.28;47.73;95281.66;5114125;28;1910;-51
2022/07/15 07:45:51;;;;;;;;;;;;;;;25.36;47.86;95280.41;5114171;28;1044;-51
2022/07/15 07:48:17;;;;;;;;;;;;;;;25.42;48.02;95275.81;5117858;27;1217;-51
2022/07/15 07:50:43;;;;;;;;;;;;;;;25.36;46.19;95279.56;5134136;27;1120;-51
2022/07/15 07:53:10;;;;;;;;;;;;;;;25.44;47.28;95270.94;5134606;27;962;-51
2022/07/15 07:55:36;;;;;;;;;;;;;;;25.61;48.26;95270.88;5134221;27;1063;-51
2022/07/15 07:58:02;;;;;;;;;;;;;;;25.68;46.34;95266.88;5134243;27;1041;-51
2022/07/15 08:00:29;;;;;;;;;;;;;;;25.83;47.11;95269.00;5134371;28;990;-51
2022/07/15 08:02:55;;;;;;;;;;;;;;;25.93;45.30;95262.03;5134464;28;1933;-51
2022/07/15 08:05:22;;;;;;;;;;;;;;;25.97;45.60;95260.44;5134108;28;1028;-51
2022/07/15 08:07:48;;;;;;;;;;;;;;;25.87;43.79;95253.72;5134407;28;1005;-51
2022/07/15 08:10:14;;;;;;;;;;;;;;;25.94;44.63;95255.50;5134119;28;965;-51
2022/07/15 08:12:40;;;;;;;;;;;;;;;26.04;44.22;95256.41;5134429;28;963;-51
2022/07/15 08:15:08;;;;;;;;;;;;;;;26.18;45.85;95245.06;5115935;28;1037;-51
2022/07/15 08:17:34;;;;;;;;;;;;;;;26.36;45.17;95243.91;5134031;28;1164;-51
2022/07/15 08:20:00;;;;;;;;;;;;;;;26.44;44.27;95248.91;5134233;28;1016;-51
2022/07/15 08:22:26;;;;;;;;;;;;;;;26.57;44.53;95242.19;5134098;28;1048;-51
2022/07/15 08:24:53;;;;;;;;;;;;;;;26.70;44.06;95243.72;5134049;28;1913;-51
2022/07/15 08:27:19;;;;;;;;;;;;;;;26.83;43.89;95237.78;5134108;28;1043;-51
2022/07/15 08:29:46;;;;;;;;;;;;;;;26.97;43.13;95246.41;5134087;28;1080;-51
2022/07/15 08:32:12;;;;;;;;;;;;;;;27.01;43.47;95234.63;5133989;28;968;-51
2022/07/15 08:34:40;;;;;;;;;;;;;;;27.07;42.85;95238.22;5133903;28;1855;-51
2022/07/15 08:37:06;;;;;;;;;;;;;;;27.12;42.67;95237.47;5133801;28;1021;-51
2022/07/15 08:39:32;;;;;;;;;;;;;;;27.11;41.35;95238.53;5134034;28;1055;-51
2022/07/15 08:41:59;;;;;;;;;;;;;;;27.07;41.66;95239.09;5134059;28;1117;-51
2022/07/15 08:44:25;;;;;;;;;;;;;;;27.22;41.31;95232.88;5097837;28;1999;-51
2022/07/15 08:46:53;;;;;;;;;;;;;;;27.33;40.16;95228.28;5095124;28;1103;-50
2022/07/15 08:49:22;;;;;;;;;;;;;;;27.46;40.15;95221.50;5104032;28;1108;-51
2022/07/15 08:51:48;;;;;;;;;;;;;;;27.50;39.42;95225.38;5113096;28;965;-50
2022/07/15 08:54:15;;;;;;;;;;;;;;;27.37;37.55;95220.38;5113129;28;1055;-50
2022/07/15 08:56:45;;;;;;;;;;;;;;;27.35;38.85;95215.13;5111842;28;1032;-50
2022/07/15 08:59:11;;;;;;;;;;;;;;;27.35;38.32;95223.38;5113420;28;1004;-50
2022/07/15 09:01:42;;;;;;;;;;;;;;;27.41;38.23;95216.84;5113036;28;1035;-50
2022/07/15 09:04:08;;;;;;;;;;;;;;;27.58;38.55;95215.81;5116274;28;1906;-50
2022/07/15 09:06:38;;;;;;;;;;;;;;;27.68;38.29;95221.38;5116764;28;949;-50
2022/07/15 09:09:24;;;;;;;;;;;;;;;27.77;37.86;95208.75;5116689;28;1028;-50
2022/07/15 09:12:00;;;;;;;;;;;;;;;27.88;38.25;95217.06;5116602;28;1046;-52
2022/07/15 09:14:30;;;;;;;;;;;;;;;28.00;39.10;95212.16;5116862;28;985;-50
2022/07/15 09:17:04;;;;;;;;;;;;;;;28.02;38.64;95209.97;5116550;28;1867;-50
2022/07/15 09:19:50;;;;;;;;;;;;;;;27.99;37.15;95213.28;5116598;28;1082;-50
2022/07/15 09:22:18;;;;;;;;;;;;;;;28.07;38.74;95207.25;5116260;28;1743;-50
2022/07/15 09:24:44;;;;;;;;;;;;;;;28.14;36.36;95201.50;5116443;28;2000;-50
2022/07/15 09:27:29;;;;;;;;;;;;;;;28.21;37.18;95200.16;5116272;28;1122;-50
2022/07/15 09:38:11;;;;;;;;;;;;;;;28.41;37.69;95201.28;5115989;28;1164;-50
2022/07/15 09:40:48;;;;;;;;;;;;;;;28.46;37.72;95203.19;5116523;28;976;-50
2022/07/15 09:43:14;;;;;;;;;;;;;;;28.38;35.17;95196.31;5115927;28;1902;-50
2022/07/15 09:45:40;;;;;;;;;;;;;;;28.36;35.78;95204.00;5116251;28;1028;-50
2022/07/15 09:48:06;;;;;;;;;;;;;;;28.43;35.83;95202.66;5117863;27;1234;-51
2022/07/15 09:50:36;;;;;;;;;;;;;;;28.39;34.01;95197.97;5118373;27;965;-50
2022/07/15 09:53:03;;;;;;;;;;;;;;;28.39;36.26;95195.22;5136286;27;2130;-50
2022/07/15 09:55:30;;;;;;;;;;;;;;;28.50;36.56;95194.16;5136641;27;1037;-50
2022/07/15 09:57:59;;;;;;;;;;;;;;;28.52;34.65;95191.97;5136232;27;1084;-50
2022/07/15 10:00:25;;;;;;;;;;;;;;;28.50;34.37;95188.66;5136453;27;1691;-50
2022/07/15 10:02:51;;;;;;;;;;;;;;;28.57;35.30;95186.50;5136189;27;1905;-50
2022/07/15 10:05:17;;;;;;;;;;;;;;;28.63;32.98;95192.81;5135918;27;1087;-51
2022/07/15 10:07:44;;;;;;;;;;;;;;;28.60;32.26;95177.69;5136328;27;991;-50
2022/07/15 10:10:10;;;;;;;;;;;;;;;28.66;34.03;95184.00;5136142;27;1003;-50
2022/07/15 10:12:55;;;;;;;;;;;;;;;28.73;34.42;95184.56;5136116;27;1068;-50
2022/07/15 10:15:27;;;;;;;;;;;;;;;28.72;31.50;95180.19;5136157;27;1003;-50
2022/07/15 10:18:19;;;;;;;;;;;;;;;28.71;32.18;95177.69;5136413;27;993;-50
2022/07/15 10:20:54;;;;;;;;;;;;;;;28.71;32.33;95175.75;5136047;27;1037;-50
2022/07/15 10:23:38;;;;;;;;;;;;;;;28.66;31.22;95178.50;5135767;27;1985;-51
2022/07/15 10:26:22;;;;;;;;;;;;;;;28.62;33.95;95175.47;5135770;27;1009;-50
2022/07/15 10:29:00;;;;;;;;;;;;;;;28.52;32.49;95164.47;5136085;27;958;-50
2022/07/15 10:31:28;;;;;;;;;;;;;;;28.63;34.69;95170.81;5135817;27;1146;-50
2022/07/15 10:34:03;;;;;;;;;;;;;;;28.79;35.44;95166.13;5135530;27;1071;-50
2022/07/15 10:36:53;;;;;;;;;;;;;;;28.88;33.98;95164.47;5135723;27;1007;-50
2022/07/15 10:39:21;;;;;;;;;;;;;;;28.76;34.39;95159.25;5124903;27;1849;-50
2022/07/15 10:41:50;;;;;;;;;;;;;;;28.81;35.02;95148.22;5135765;27;1034;-50
2022/07/15 10:44:16;;;;;;;;;;;;;;;28.86;34.72;95157.63;5118261;27;1909;-50
2022/07/15 10:46:42;;;;;;;;;;;;;;;28.93;34.97;95147.97;5115024;28;1058;-50
2022/07/15 10:49:11;;;;;;;;;;;;;;;29.02;35.58;95160.03;5125467;27;1084;-50
2022/07/15 10:51:37;;;;;;;;;;;;;;;29.12;35.76;95147.38;5135647;27;965;-50
2022/07/15 10:54:04;;;;;;;;;;;;;;;29.19;36.36;95147.94;5135063;27;1120;-50
2022/07/15 10:56:34;;;;;;;;;;;;;;;29.16;35.54;95151.28;5135464;27;1044;-50
2022/07/15 10:59:07;;;;;;;;;;;;;;;29.11;33.98;95142.97;5135100;27;1017;-50
2022/07/15 11:01:33;;;;;;;;;;;;;;;29.11;35.09;95145.72;5135228;27;921;-50
2022/07/15 11:04:13;;;;;;;;;;;;;;;29.14;35.30;95153.44;5134922;27;1901;-50
2022/07/15 11:06:57;;;;;;;;;;;;;;;29.16;35.01;95143.00;5135116;27;1016;-50
2022/07/15 11:09:42;;;;;;;;;;;;;;;29.23;34.73;95143.53;5134952;27;1044;-50
2022/07/15 11:12:08;;;;;;;;;;;;;;;29.24;34.12;95147.94;5134871;27;1041;-50
2022/07/15 11:14:45;;;;;;;;;;;;;;;29.22;34.36;95132.81;5135057;27;977;-50
2022/07/15 11:17:11;;;;;;;;;;;;;;;29.29;34.38;95131.41;5135044;27;1113;-50
2022/07/15 11:19:38;;;;;;;;;;;;;;;29.38;34.51;95137.97;5134724;27;1068;-50
2022/07/15 11:22:04;;;;;;;;;;;;;;;29.50;35.05;95134.91;5134663;27;1849;-50
2022/07/15 11:24:31;;;;;;;;;;;;;;;29.51;33.25;95125.53;5134334;27;1992;-50
2022/07/15 11:26:59;;;;;;;;;;;;;;;29.58;34.10;95128.00;5134396;27;1047;-50
2022/07/15 11:29:25;;;;;;;;;;;;;;;29.52;33.17;95135.47;5116375;27;1005;-50
2022/07/15 11:31:51;;;;;;;;;;;;;;;29.44;32.35;95130.50;5134748;27;1866;-50
2022/07/15 11:34:18;;;;;;;;;;;;;;;29.42;32.94;95126.41;5134346;27;1012;-50
2022/07/15 11:36:43;;;;;;;;;;;;;;;29.44;34.11;95135.19;5134712;27;972;-50
2022/07/15 11:39:10;;;;;;;;;;;;;;;29.48;33.93;95128.03;5134385;27;969;-50
2022/07/15 11:44:29;;;;;;;;;;;;;;;29.51;33.94;95109.00;5134408;27;1968;-50
2022/07/15 11:46:56;;;;;;;;;;;;;;;29.56;34.65;95099.91;5134774;27;1018;-50
2022/07/15 11:53:15;;;;;;;;;;;;;;;29.64;32.00;95102.06;4890031;27;2219;-49
2022/07/15 11:55:55;;;;;;;;;;;;;;;29.59;31.31;95104.84;5134257;27;1191;-49
2022/07/15 11:58:25;;;;;;;;;;;;;;;29.59;33.16;95091.06;5134240;28;1853;-49
2022/07/15 12:00:51;;;;;;;;;;;;;;;29.67;32.30;95095.16;5134121;28;1032;-50
2022/07/15 12:03:17;;;;;;;;;;;;;;;29.71;34.24;95090.72;5134563;28;1985;-50
2022/07/15 12:05:58;;;;;;;;;;;;;;;29.76;33.17;95088.81;5134030;28;1012;-50
2022/07/15 12:08:33;;;;;;;;;;;;;;;29.80;31.20;95091.00;5134289;28;974;-50
2022/07/15 12:10:59;;;;;;;;;;;;;;;29.72;31.76;95079.44;5134301;28;1007;-50
2022/07/15 12:13:28;;;;;;;;;;;;;;;29.71;32.86;95086.06;5134415;28;1044;-50
2022/07/15 12:15:54;;;;;;;;;;;;;;;29.75;31.38;95078.09;5134142;28;983;-50
2022/07/15 12:18:20;;;;;;;;;;;;;;;29.75;32.52;95072.56;5133990;28;1075;-50
2022/07/15 12:20:46;;;;;;;;;;;;;;;29.92;32.41;95080.47;5133976;28;997;-50
2022/07/15 12:23:12;;;;;;;;;;;;;;;30.04;31.54;95083.69;5133879;28;1902;-50
2022/07/15 12:25:38;;;;;;;;;;;;;;;30.09;31.11;95083.66;5134146;28;1032;-50
2022/07/15 12:28:05;;;;;;;;;;;;;;;30.16;30.33;95072.28;5134204;28;1011;-50
2022/07/15 12:30:33;;;;;;;;;;;;;;;30.27;30.55;95073.84;5134073;28;968;-50
2022/07/15 12:33:14;;;;;;;;;;;;;;;30.27;30.04;95078.56;5134131;28;953;-50
2022/07/15 12:35:40;;;;;;;;;;;;;;;30.19;31.22;95077.25;5133621;28;1016;-50
2022/07/15 12:38:06;;;;;;;;;;;;;;;30.17;32.81;95079.47;5137369;27;982;-49
2022/07/15 12:40:32;;;;;;;;;;;;;;;30.17;31.57;95077.53;5137939;27;1016;-49
2022/07/15 12:42:58;;;;;;;;;;;;;;;30.14;30.83;95083.59;5131812;27;1994;-49
2022/07/15 12:45:26;;;;;;;;;;;;;;;30.10;30.70;95078.97;5117029;28;1127;-49
2022/07/15 12:48:08;;;;;;;;;;;;;;;30.08;30.38;95079.25;5117308;28;1029;-49
2022/07/15 12:50:36;;;;;;;;;;;;;;;29.93;28.79;95082.09;5116962;28;1040;-50
2022/07/15 12:53:03;;;;;;;;;;;;;;;29.90;29.01;95077.16;5134916;27;1206;-50
2022/07/15 12:55:39;;;;;;;;;;;;;;;29.87;28.43;95072.22;5137482;27;1067;-50
2022/07/15 12:58:07;;;;;;;;;;;;;;;29.89;26.55;95081.03;5137601;27;1957;-49
2022/07/15 13:00:33;;;;;;;;;;;;;;;29.86;27.40;95078.81;5137425;27;1029;-50
2022/07/15 13:03:17;;;;;;;;;;;;;;;29.94;28.57;95078.25;5137392;27;1980;-50
2022/07/15 13:05:45;;;;;;;;;;;;;;;29.95;28.56;95079.88;5137310;27;1114;-50
2022/07/15 13:08:15;;;;;;;;;;;;;;;29.79;28.67;95084.66;5137565;27;1056;-50
2022/07/15 13:10:43;;;;;;;;;;;;;;;29.84;28.21;95075.53;5137557;27;1040;-50
2022/07/15 13:13:09;;;;;;;;;;;;;;;29.84;28.81;95079.13;5137326;27;1064;-50
2022/07/15 13:15:35;;;;;;;;;;;;;;;29.92;28.34;95080.47;5137030;27;947;-50
2022/07/15 13:18:01;;;;;;;;;;;;;;;30.00;28.12;95071.59;5137121;27;1039;-50
2022/07/15 13:20:28;;;;;;;;;;;;;;;29.98;28.21;95069.09;5137069;27;1091;-50